Time;durP1;ratioP1;P1;durP2;ratioP2;P2;SDS_P1;SDS_P2;PMS_P1;PMS_P2;Temp;Humidity;BMP_temperature;BMP_pressure;BME280_temperature;BME280_humidity;BME280_pressure;Samples;Min_cycle;Max_cycle;Signal;HPM_P1;HPM_P2
2022/11/21 00:01:59;;;;;;;32.53;17.52;;;1.30;99.90;;;;;;6157982;23;20022;-80
2022/11/21 00:04:25;;;;;;;30.13;16.08;;;1.30;99.90;;;;;;6157626;23;20025;-80
2022/11/21 00:06:51;;;;;;;37.83;18.05;;;1.30;99.90;;;;;;6157666;23;20472;-80
2022/11/21 00:09:17;;;;;;;33.80;18.40;;;1.20;99.90;;;;;;6157619;23;20022;-80
2022/11/21 00:11:42;;;;;;;31.42;16.92;;;1.20;99.90;;;;;;6131660;23;20028;-80
2022/11/21 00:14:08;;;;;;;31.08;17.02;;;1.10;99.90;;;;;;6157718;23;20018;-80
2022/11/21 00:16:34;;;;;;;35.58;17.35;;;1.10;99.90;;;;;;6157952;23;20043;-80
2022/11/21 00:18:59;;;;;;;33.80;16.70;;;1.10;99.90;;;;;;6157646;23;20025;-80
2022/11/21 00:21:25;;;;;;;30.48;16.70;;;1.00;99.90;;;;;;6157880;23;20013;-80
2022/11/21 00:23:52;;;;;;;32.97;17.13;;;0.90;99.90;;;;;;6157755;23;20346;-80
2022/11/21 00:26:17;;;;;;;28.90;15.52;;;0.80;99.90;;;;;;6131522;23;20140;-80
2022/11/21 00:28:44;;;;;;;34.03;16.48;;;0.70;99.90;;;;;;6157814;23;20033;-80
2022/11/21 00:31:21;;;;;;;33.60;17.73;;;0.60;99.90;;;;;;6131389;23;20394;-80
2022/11/21 00:33:46;;;;;;;31.20;17.60;;;0.60;99.90;;;;;;6131419;23;20045;-80
2022/11/21 00:36:12;;;;;;;27.55;15.85;;;0.50;99.90;;;;;;6157727;23;20343;-80
2022/11/21 00:38:38;;;;;;;34.70;16.20;;;0.50;99.90;;;;;;6157770;23;20084;-80
2022/11/21 00:41:04;;;;;;;32.38;17.38;;;0.40;99.90;;;;;;6131261;23;20413;-80
2022/11/21 00:43:30;;;;;;;30.88;17.02;;;0.40;99.90;;;;;;6157600;23;20014;-80
2022/11/21 00:45:55;;;;;;;27.92;16.58;;;0.30;99.90;;;;;;6131272;23;20025;-80
2022/11/21 00:48:21;;;;;;;31.42;17.60;;;0.20;99.90;;;;;;6157671;23;20330;-80
2022/11/21 00:50:49;;;;;;;32.67;17.13;;;0.10;99.90;;;;;;6157611;23;20014;-80
2022/11/21 00:53:15;;;;;;;38.63;17.88;;;0.10;99.90;;;;;;6157535;23;20020;-80
2022/11/21 00:55:41;;;;;;;33.13;16.60;;;0.10;99.90;;;;;;6157373;23;20080;-80
2022/11/21 00:58:07;;;;;;;29.90;16.50;;;0.00;99.90;;;;;;6157959;23;20018;-80
2022/11/21 01:00:32;;;;;;;34.60;17.52;;;0.00;99.90;;;;;;6157524;23;20045;-80
2022/11/21 01:02:58;;;;;;;31.35;16.77;;;-0.10;99.90;;;;;;6157485;23;20049;-80
2022/11/21 01:05:24;;;;;;;35.42;18.45;;;-0.10;99.90;;;;;;6157464;23;20064;-80
2022/11/21 01:07:50;;;;;;;33.97;18.58;;;-0.10;99.90;;;;;;6131018;23;20025;-80
2022/11/21 01:10:18;;;;;;;33.47;17.25;;;-0.10;99.90;;;;;;6130995;23;20059;-80
2022/11/21 01:12:44;;;;;;;40.05;19.25;;;-0.10;99.90;;;;;;6157353;23;20021;-80
2022/11/21 01:15:10;;;;;;;37.08;19.25;;;-0.10;99.90;;;;;;6157006;23;20446;-80
2022/11/21 01:17:36;;;;;;;34.70;17.90;;;-0.10;99.90;;;;;;6157820;23;20053;-80
2022/11/21 01:20:01;;;;;;;40.00;20.70;;;-0.20;99.90;;;;;;6157374;23;20024;-80
2022/11/21 01:22:27;;;;;;;34.70;18.33;;;-0.20;99.90;;;;;;6157274;23;20024;-80
2022/11/21 01:24:52;;;;;;;35.80;17.75;;;-0.20;99.90;;;;;;6156938;23;20026;-80
2022/11/21 01:27:18;;;;;;;36.75;20.30;;;-0.20;99.90;;;;;;6130919;23;20049;-80
2022/11/21 01:29:44;;;;;;;35.20;19.13;;;-0.20;99.90;;;;;;6157205;23;20025;-80
2022/11/21 01:32:09;;;;;;;37.95;19.35;;;-0.30;99.90;;;;;;6156930;23;20017;-80
2022/11/21 01:34:35;;;;;;;41.50;19.27;;;-0.30;99.90;;;;;;6156838;23;20021;-80
2022/11/21 01:37:01;;;;;;;37.33;17.80;;;-0.30;99.90;;;;;;6130696;23;20096;-80
2022/11/21 01:39:26;;;;;;;39.75;20.05;;;-0.30;99.90;;;;;;6156804;23;20450;-80
2022/11/21 01:41:52;;;;;;;38.67;19.08;;;-0.30;99.90;;;;;;6157241;23;20061;-80
2022/11/21 01:44:20;;;;;;;40.88;19.38;;;-0.30;99.90;;;;;;6157086;23;20017;-80
2022/11/21 01:46:47;;;;;;;38.40;17.98;;;-0.30;99.90;;;;;;6156785;23;20113;-80
2022/11/21 01:49:25;;;;;;;37.42;20.38;;;-0.30;99.90;;;;;;6156886;23;20009;-80
2022/11/21 01:52:12;;;;;;;37.67;19.60;;;-0.40;99.90;;;;;;6157086;23;20072;-80
2022/11/21 01:54:50;;;;;;;39.20;19.85;;;-0.40;99.90;;;;;;6156899;23;20021;-80
2022/11/21 01:57:34;;;;;;;39.38;19.58;;;-0.50;99.90;;;;;;6157050;23;20013;-80
2022/11/21 02:00:17;;;;;;;43.38;21.55;;;-0.50;99.90;;;;;;6156821;23;20454;-80
2022/11/21 02:02:48;;;;;;;36.00;18.48;;;-0.50;99.90;;;;;;6156773;23;20013;-79
2022/11/21 02:05:18;;;;;;;40.33;20.65;;;-0.50;99.90;;;;;;6156945;23;20021;-80
2022/11/21 02:07:47;;;;;;;38.88;19.50;;;-0.50;99.90;;;;;;6130543;23;20013;-79
2022/11/21 02:10:14;;;;;;;42.15;19.40;;;-0.50;99.90;;;;;;6156687;23;20346;-80
2022/11/21 02:12:49;;;;;;;45.38;20.83;;;-0.50;99.90;;;;;;6156501;23;20345;-80
2022/11/21 02:15:17;;;;;;;41.35;20.83;;;-0.60;99.90;;;;;;6156253;23;20496;-80
2022/11/21 02:17:43;;;;;;;44.08;21.58;;;-0.60;99.90;;;;;;6156375;23;20032;-80
2022/11/21 02:20:12;;;;;;;44.78;20.00;;;-0.60;99.90;;;;;;6156545;23;20021;-80
2022/11/21 02:22:50;;;;;;;41.80;21.90;;;-0.60;99.90;;;;;;6130277;23;20484;-80
2022/11/21 02:25:21;;;;;;;47.10;22.77;;;-0.60;99.90;;;;;;6156811;23;20017;-79
2022/11/21 02:27:48;;;;;;;44.63;22.55;;;-0.60;99.90;;;;;;6156727;23;20017;-79
2022/11/21 02:30:16;;;;;;;51.13;23.63;;;-0.60;99.90;;;;;;6156329;23;20378;-80
2022/11/21 02:32:45;;;;;;;41.45;22.20;;;-0.60;99.90;;;;;;6156357;23;20028;-79
2022/11/21 02:35:13;;;;;;;43.55;21.20;;;-0.60;99.90;;;;;;6156312;23;20346;-79
2022/11/21 02:37:39;;;;;;;45.00;22.65;;;-0.60;99.90;;;;;;6129962;23;20378;-79
2022/11/21 02:40:10;;;;;;;47.20;23.65;;;-0.60;99.90;;;;;;6156022;23;20019;-79
2022/11/21 02:42:39;;;;;;;45.55;21.98;;;-0.60;99.90;;;;;;6156553;23;20017;-79
2022/11/21 02:45:29;;;;;;;46.25;22.88;;;-0.60;99.90;;;;;;6156658;23;20118;-80
2022/11/21 02:47:55;;;;;;;51.40;24.83;;;-0.60;99.90;;;;;;6156384;23;20021;-80
2022/11/21 02:50:38;;;;;;;55.65;23.83;;;-0.50;99.90;;;;;;6156624;23;20036;-79
2022/11/21 02:53:05;;;;;;;49.47;23.08;;;-0.50;99.90;;;;;;6156798;23;20060;-79
2022/11/21 02:55:31;;;;;;;48.38;23.33;;;-0.50;99.90;;;;;;6156583;23;20072;-79
2022/11/21 02:57:56;;;;;;;48.00;24.50;;;-0.50;99.90;;;;;;6129967;23;20536;-79
2022/11/21 03:00:23;;;;;;;53.03;24.38;;;-0.40;99.90;;;;;;6156523;23;20021;-79
2022/11/21 03:02:49;;;;;;;49.63;24.25;;;-0.50;99.90;;;;;;6129897;23;20056;-79
2022/11/21 03:05:17;;;;;;;54.95;25.15;;;-0.50;99.90;;;;;;6130026;23;20068;-79
2022/11/21 03:07:43;;;;;;;52.38;23.58;;;-0.50;99.90;;;;;;6156495;23;20024;-79
2022/11/21 03:10:09;;;;;;;50.65;23.73;;;-0.50;99.90;;;;;;6130106;23;20080;-79
2022/11/21 03:12:36;;;;;;;51.53;23.55;;;-0.40;99.90;;;;;;6156093;23;20318;-80
2022/11/21 03:15:03;;;;;;;50.88;22.98;;;-0.50;99.90;;;;;;6129743;23;20378;-79
2022/11/21 03:17:28;;;;;;;48.40;22.35;;;-0.40;99.90;;;;;;6130088;23;20095;-80
2022/11/21 03:19:54;;;;;;;49.08;22.52;;;-0.40;99.90;;;;;;6156644;23;20021;-80
2022/11/21 03:22:20;;;;;;;47.83;21.65;;;-0.30;99.90;;;;;;6130577;23;20051;-80
2022/11/21 03:24:45;;;;;;;60.40;23.60;;;-0.40;99.90;;;;;;6130079;23;20018;-80
2022/11/21 03:27:11;;;;;;;47.17;21.02;;;-0.30;99.90;;;;;;6156458;23;20010;-79
2022/11/21 03:29:37;;;;;;;46.65;22.10;;;-0.30;99.90;;;;;;6157616;23;20018;-79
2022/11/21 03:32:03;;;;;;;49.05;22.50;;;-0.30;99.90;;;;;;6158069;23;20021;-80
2022/11/21 03:34:28;;;;;;;47.75;22.20;;;-0.40;99.90;;;;;;6157806;23;20442;-79
2022/11/21 03:36:54;;;;;;;47.08;22.02;;;-0.40;99.90;;;;;;6131915;23;20031;-79
2022/11/21 03:39:20;;;;;;;44.92;21.38;;;-0.40;99.90;;;;;;6158036;23;20442;-79
2022/11/21 03:41:45;;;;;;;47.95;23.38;;;-0.40;99.90;;;;;;6131810;23;20018;-80
2022/11/21 03:44:11;;;;;;;48.17;21.67;;;-0.40;99.90;;;;;;6158205;23;20018;-79
2022/11/21 03:46:42;;;;;;;47.65;22.25;;;-0.50;99.90;;;;;;6158270;23;20385;-80
2022/11/21 03:49:08;;;;;;;53.42;24.70;;;-0.40;99.90;;;;;;6158245;23;20013;-80
2022/11/21 03:51:34;;;;;;;55.92;25.75;;;-0.30;99.90;;;;;;6157783;23;20341;-80
2022/11/21 03:54:00;;;;;;;53.08;26.38;;;-0.20;99.90;;;;;;6158091;23;20497;-80
2022/11/21 03:56:26;;;;;;;61.90;27.73;;;-0.20;99.90;;;;;;6158127;23;20014;-80
2022/11/21 03:58:51;;;;;;;56.33;27.08;;;-0.20;99.90;;;;;;6131660;23;20102;-80
2022/11/21 04:01:17;;;;;;;68.20;28.67;;;-0.20;99.90;;;;;;6157638;23;20113;-80
2022/11/21 04:03:44;;;;;;;55.70;26.45;;;0.00;99.90;;;;;;6131585;23;20525;-80
2022/11/21 04:06:15;;;;;;;58.08;27.00;;;0.00;99.90;;;;;;6157870;23;20060;-80
2022/11/21 04:08:41;;;;;;;60.53;28.02;;;0.00;99.90;;;;;;6131547;23;20021;-80
2022/11/21 04:11:07;;;;;;;61.72;28.17;;;-0.10;99.90;;;;;;6131537;23;20014;-80
2022/11/21 04:13:33;;;;;;;58.97;27.58;;;0.00;99.90;;;;;;6157486;23;20028;-80
2022/11/21 04:15:58;;;;;;;63.85;28.95;;;0.00;99.90;;;;;;6157406;23;20013;-80
2022/11/21 04:18:24;;;;;;;61.55;28.25;;;0.00;99.90;;;;;;6157897;23;20395;-80
2022/11/21 04:20:57;;;;;;;53.67;28.08;;;0.00;99.90;;;;;;6131471;23;20450;-80
2022/11/21 04:23:23;;;;;;;64.72;26.70;;;0.00;99.90;;;;;;6157852;23;20018;-80
2022/11/21 04:25:49;;;;;;;59.70;28.58;;;0.00;99.90;;;;;;6131320;23;20016;-80
2022/11/21 04:28:15;;;;;;;65.75;28.83;;;0.00;99.90;;;;;;6157856;23;20053;-80
2022/11/21 04:30:42;;;;;;;62.03;28.50;;;0.00;99.90;;;;;;6157833;23;20049;-80
2022/11/21 04:33:10;;;;;;;67.15;28.58;;;0.00;99.90;;;;;;6131402;23;20028;-80
2022/11/21 04:35:36;;;;;;;60.83;27.48;;;0.10;99.90;;;;;;6157349;23;20402;-80
2022/11/21 04:38:01;;;;;;;63.13;28.80;;;0.00;99.90;;;;;;6157715;23;20028;-80
2022/11/21 04:40:27;;;;;;;60.97;28.40;;;0.00;99.90;;;;;;6157505;23;20049;-80
2022/11/21 04:42:53;;;;;;;66.57;29.25;;;0.10;99.90;;;;;;6157376;23;20045;-81
2022/11/21 04:45:18;;;;;;;57.20;26.88;;;-0.10;99.90;;;;;;6157697;23;20018;-80
2022/11/21 04:47:45;;;;;;;55.45;25.83;;;-0.10;99.90;;;;;;6131337;23;20017;-79
2022/11/21 04:50:14;;;;;;;52.42;24.65;;;-0.10;99.90;;;;;;6157646;23;20013;-79
2022/11/21 04:52:40;;;;;;;54.28;25.15;;;-0.10;99.90;;;;;;6157475;23;20053;-80
2022/11/21 04:55:06;;;;;;;50.60;24.40;;;-0.10;99.90;;;;;;6157574;23;20020;-79
2022/11/21 04:57:33;;;;;;;55.65;25.65;;;-0.20;99.90;;;;;;6158041;23;20060;-79
2022/11/21 04:59:58;;;;;;;49.70;23.77;;;-0.10;99.90;;;;;;6131146;23;20014;-80
2022/11/21 05:02:24;;;;;;;48.67;23.02;;;-0.20;99.90;;;;;;6131023;23;20021;-79
2022/11/21 05:04:50;;;;;;;54.78;25.60;;;-0.20;99.90;;;;;;6131160;23;20458;-80
2022/11/21 05:07:16;;;;;;;49.30;25.23;;;-0.20;99.90;;;;;;6157224;23;20017;-80
2022/11/21 05:09:42;;;;;;;50.83;24.52;;;-0.30;99.90;;;;;;6157481;23;20013;-80
2022/11/21 05:14:54;;;;;;;55.85;25.92;;;-0.20;99.90;;;;;;6157134;23;20026;-80
2022/11/21 05:17:19;;;;;;;63.72;26.48;;;-0.20;99.90;;;;;;6157413;23;20053;-80
2022/11/21 05:19:45;;;;;;;60.20;26.27;;;-0.10;99.90;;;;;;6130954;23;20045;-80
2022/11/21 05:22:11;;;;;;;58.35;26.55;;;-0.10;99.90;;;;;;6130833;23;20021;-80
2022/11/21 05:24:37;;;;;;;63.47;28.17;;;-0.10;99.90;;;;;;6130903;23;20084;-80
2022/11/21 05:27:02;;;;;;;55.33;25.65;;;0.00;99.90;;;;;;6156998;23;20032;-79
2022/11/21 05:29:28;;;;;;;60.20;25.58;;;0.00;99.90;;;;;;6157327;23;20010;-79
2022/11/21 05:31:54;;;;;;;55.10;24.95;;;-0.10;99.90;;;;;;6130903;23;20032;-80
2022/11/21 05:34:19;;;;;;;53.17;24.80;;;-0.10;99.90;;;;;;6156883;23;20018;-80
2022/11/21 05:36:45;;;;;;;53.65;24.38;;;-0.20;99.90;;;;;;6157230;23;20333;-80
2022/11/21 05:39:11;;;;;;;51.67;23.08;;;-0.30;99.90;;;;;;6130744;23;20026;-80
2022/11/21 05:41:36;;;;;;;50.63;25.23;;;-0.30;99.90;;;;;;6156813;23;20021;-80
2022/11/21 05:44:02;;;;;;;54.40;24.55;;;-0.20;99.90;;;;;;6157092;23;20025;-80
2022/11/21 05:46:28;;;;;;;58.92;25.58;;;-0.30;99.90;;;;;;6156806;23;20053;-80
2022/11/21 05:48:54;;;;;;;58.00;26.30;;;-0.30;99.90;;;;;;6157095;23;20018;-80
2022/11/21 05:51:20;;;;;;;55.72;23.88;;;-0.30;99.90;;;;;;6156677;23;20013;-80
2022/11/21 05:53:47;;;;;;;51.72;23.95;;;-0.30;99.90;;;;;;6130710;23;20095;-80
2022/11/21 05:56:15;;;;;;;57.63;24.00;;;-0.30;99.90;;;;;;6156973;23;20014;-80
2022/11/21 05:58:41;;;;;;;53.90;23.42;;;-0.30;99.90;;;;;;6156960;23;20021;-80
2022/11/21 06:01:08;;;;;;;54.88;24.38;;;-0.30;99.90;;;;;;6156968;23;20093;-80
2022/11/21 06:03:39;;;;;;;53.25;23.60;;;-0.20;99.90;;;;;;6156552;23;20018;-80
2022/11/21 06:06:07;;;;;;;54.97;23.27;;;-0.30;99.90;;;;;;6156493;23;20577;-80
2022/11/21 06:08:38;;;;;;;48.47;23.08;;;-0.20;99.90;;;;;;6130504;23;20072;-80
2022/11/21 06:11:06;;;;;;;45.28;21.05;;;-0.30;99.90;;;;;;6130592;23;20105;-80
2022/11/21 06:13:32;;;;;;;52.42;23.67;;;-0.30;99.90;;;;;;6130360;23;20338;-80
2022/11/21 06:16:04;;;;;;;49.90;23.58;;;-0.30;99.90;;;;;;6156312;23;20461;-80
2022/11/21 06:18:32;;;;;;;45.80;21.80;;;-0.40;99.90;;;;;;6156939;23;20021;-80
2022/11/21 06:21:07;;;;;;;53.00;23.02;;;-0.30;99.90;;;;;;6130873;23;20068;-80
2022/11/21 06:23:34;;;;;;;49.63;24.20;;;-0.30;99.90;;;;;;6156792;23;20022;-80
2022/11/21 06:26:03;;;;;;;49.80;23.15;;;-0.30;99.90;;;;;;6156435;23;20032;-80
2022/11/21 06:28:32;;;;;;;47.13;22.55;;;-0.40;99.90;;;;;;6156788;23;20010;-80
2022/11/21 06:31:06;;;;;;;53.50;24.77;;;-0.40;99.90;;;;;;6156325;23;20441;-80
2022/11/21 06:33:32;;;;;;;51.10;22.95;;;-0.40;99.90;;;;;;6156366;23;20454;-80
2022/11/21 06:36:05;;;;;;;52.80;23.73;;;-0.40;99.90;;;;;;6156695;23;20024;-80
2022/11/21 06:38:31;;;;;;;54.33;24.83;;;-0.40;99.90;;;;;;6130378;23;20018;-80
2022/11/21 06:40:57;;;;;;;56.30;23.83;;;-0.50;99.90;;;;;;6156550;23;20025;-80
2022/11/21 06:43:23;;;;;;;54.42;24.00;;;-0.50;99.90;;;;;;6156048;23;20028;-80
2022/11/21 06:45:48;;;;;;;49.22;23.83;;;-0.50;99.90;;;;;;6130222;23;20021;-80
2022/11/21 06:48:14;;;;;;;44.63;21.58;;;-0.50;99.90;;;;;;6156223;23;20017;-80
2022/11/21 06:50:40;;;;;;;53.50;25.60;;;-0.60;99.90;;;;;;6156612;23;20072;-80
2022/11/21 06:53:06;;;;;;;50.45;23.35;;;-0.50;99.90;;;;;;6130057;23;20047;-80
2022/11/21 06:55:31;;;;;;;50.10;22.27;;;-0.50;99.90;;;;;;6129931;23;20341;-80
2022/11/21 06:57:58;;;;;;;48.38;21.52;;;-0.50;99.90;;;;;;6129748;23;20087;-80
2022/11/21 07:00:27;;;;;;;50.83;22.55;;;-0.60;99.90;;;;;;6155173;23;20005;-80
2022/11/21 07:02:58;;;;;;;50.50;23.90;;;-0.50;99.90;;;;;;6155465;23;20064;-80
2022/11/21 07:05:24;;;;;;;48.55;23.02;;;-0.50;99.90;;;;;;6130095;23;20021;-80
2022/11/21 07:07:49;;;;;;;47.67;22.38;;;-0.60;99.90;;;;;;6129665;23;20010;-80
2022/11/21 07:10:15;;;;;;;48.83;21.67;;;-0.50;99.90;;;;;;6130016;23;20354;-79
2022/11/21 07:15:25;;;;;;;51.78;23.50;;;-0.70;99.90;;;;;;6155923;23;20045;-79
2022/11/21 07:17:50;;;;;;;55.70;25.73;;;-0.60;99.90;;;;;;6130217;23;20018;-80
2022/11/21 07:20:16;;;;;;;52.80;24.33;;;-0.70;99.90;;;;;;6156316;23;20024;-80
2022/11/21 07:22:42;;;;;;;50.42;24.67;;;-0.70;99.90;;;;;;6129806;23;20028;-79
2022/11/21 07:25:08;;;;;;;65.78;29.38;;;-0.70;99.90;;;;;;6129813;23;20056;-80
2022/11/21 07:27:34;;;;;;;67.68;31.02;;;-0.70;99.90;;;;;;6156104;23;20029;-81
2022/11/21 07:29:59;;;;;;;78.70;31.88;;;-0.70;99.90;;;;;;6156231;23;20014;-80
2022/11/21 07:32:26;;;;;;;80.13;37.40;;;-0.70;99.90;;;;;;6155841;23;20334;-80
2022/11/21 07:34:52;;;;;;;75.70;41.55;;;-0.70;99.90;;;;;;6129839;23;20022;-80
2022/11/21 07:37:18;;;;;;;63.53;30.30;;;-0.70;99.90;;;;;;6129844;23;20045;-80
2022/11/21 07:39:44;;;;;;;89.85;50.10;;;-0.70;99.90;;;;;;6155883;23;20260;-80
2022/11/21 07:42:10;;;;;;;68.57;30.67;;;-0.70;99.90;;;;;;6156145;23;20013;-79
2022/11/21 07:44:35;;;;;;;63.53;27.15;;;-0.70;99.90;;;;;;6155817;23;20032;-80
2022/11/21 07:47:01;;;;;;;69.65;35.75;;;-0.80;99.90;;;;;;6156251;23;20465;-80
2022/11/21 07:49:27;;;;;;;69.07;31.92;;;-0.60;99.90;;;;;;6156131;23;20024;-80
2022/11/21 07:51:52;;;;;;;73.47;35.38;;;-0.70;99.90;;;;;;6155160;23;20085;-80
2022/11/21 07:54:18;;;;;;;89.00;39.67;;;-0.60;99.90;;;;;;6155400;23;20401;-80
2022/11/21 07:56:44;;;;;;;71.03;34.75;;;-0.70;99.90;;;;;;6155994;23;20092;-80
2022/11/21 07:59:10;;;;;;;73.63;32.10;;;-0.60;99.90;;;;;;6155542;23;20072;-78
2022/11/21 08:01:35;;;;;;;70.65;30.83;;;-0.50;99.90;;;;;;6129648;23;20026;-79
2022/11/21 08:04:01;;;;;;;60.78;28.98;;;-0.40;99.90;;;;;;6155437;23;20022;-80
2022/11/21 08:06:26;;;;;;;68.95;28.50;;;-0.40;99.90;;;;;;6129442;23;20017;-79
2022/11/21 08:08:53;;;;;;;74.13;34.47;;;-0.30;99.90;;;;;;6155372;23;20017;-80
2022/11/21 08:11:19;;;;;;;84.53;37.88;;;-0.30;99.90;;;;;;6155957;23;20060;-79
2022/11/21 08:13:44;;;;;;;75.63;33.40;;;-0.10;99.90;;;;;;6129614;23;20013;-79
2022/11/21 08:16:10;;;;;;;70.15;31.67;;;-0.10;99.90;;;;;;6156874;23;20018;-80
2022/11/21 08:18:36;;;;;;;62.05;29.67;;;0.00;99.90;;;;;;6157591;23;20021;-80
2022/11/21 08:21:02;;;;;;;68.10;29.60;;;0.10;99.90;;;;;;6131175;23;20047;-80
2022/11/21 08:23:28;;;;;;;66.15;28.85;;;0.10;99.90;;;;;;6156945;23;20024;-80
2022/11/21 08:25:54;;;;;;;61.40;28.67;;;0.20;99.90;;;;;;6157583;23;20014;-80
2022/11/21 08:28:20;;;;;;;60.70;29.20;;;0.20;99.90;;;;;;6157626;23;20092;-81
2022/11/21 08:30:45;;;;;;;68.22;28.80;;;0.20;99.90;;;;;;6157470;23;20024;-80
2022/11/21 08:33:11;;;;;;;57.67;28.52;;;0.20;99.90;;;;;;6157346;23;20036;-80
2022/11/21 08:35:37;;;;;;;62.28;27.88;;;0.30;99.90;;;;;;6130940;23;20402;-79
2022/11/21 08:38:04;;;;;;;58.17;27.92;;;0.40;99.90;;;;;;6157021;23;20350;-80
2022/11/21 08:40:30;;;;;;;59.80;27.08;;;0.40;99.90;;;;;;6156911;23;20107;-80
2022/11/21 08:43:01;;;;;;;66.15;29.08;;;0.40;99.90;;;;;;6156779;23;20033;-80
2022/11/21 08:45:27;;;;;;;58.72;26.70;;;0.50;99.90;;;;;;6157253;23;20025;-80
2022/11/21 08:47:54;;;;;;;59.22;25.80;;;0.50;99.90;;;;;;6130635;23;20399;-80
2022/11/21 08:50:20;;;;;;;56.15;25.77;;;0.50;99.90;;;;;;6157332;23;20017;-80
2022/11/21 08:52:46;;;;;;;53.28;26.15;;;0.50;99.90;;;;;;6156783;23;20382;-81
2022/11/21 08:55:11;;;;;;;53.90;25.20;;;0.50;99.90;;;;;;6130862;23;20480;-81
2022/11/21 08:57:40;;;;;;;51.17;25.17;;;0.60;99.90;;;;;;6157332;23;20330;-80
2022/11/21 09:00:08;;;;;;;50.95;23.38;;;0.60;99.90;;;;;;6156933;23;20025;-80
2022/11/21 09:02:34;;;;;;;50.35;23.95;;;0.60;99.90;;;;;;6131082;23;20076;-80
2022/11/21 09:05:00;;;;;;;53.15;23.88;;;0.70;99.90;;;;;;6130772;23;20024;-80
2022/11/21 09:07:26;;;;;;;49.78;23.65;;;0.70;99.90;;;;;;6156842;23;20025;-80
2022/11/21 09:09:51;;;;;;;50.63;22.77;;;0.70;99.90;;;;;;6130778;23;20512;-80
2022/11/21 09:12:17;;;;;;;50.92;24.73;;;0.70;99.90;;;;;;6157104;23;20014;-80
2022/11/21 09:20:11;;;;;;;52.15;24.83;;;0.80;99.90;;;;;;6157173;23;20029;-80
2022/11/21 09:22:37;;;;;;;48.42;22.70;;;0.80;99.90;;;;;;6156568;23;20018;-81
2022/11/21 09:25:03;;;;;;;50.10;23.23;;;1.00;99.90;;;;;;6157109;23;20022;-80
2022/11/21 09:27:29;;;;;;;50.60;23.80;;;0.80;99.90;;;;;;6155766;23;20017;-80
2022/11/21 09:29:55;;;;;;;47.95;22.83;;;0.90;99.90;;;;;;6156836;23;20013;-80
2022/11/21 09:32:21;;;;;;;45.97;23.08;;;1.00;99.90;;;;;;6130149;23;20056;-80
2022/11/21 09:34:47;;;;;;;48.20;22.80;;;1.10;99.90;;;;;;6156598;23;20017;-81
2022/11/21 09:37:13;;;;;;;48.03;23.50;;;1.00;99.90;;;;;;6156849;23;20021;-81
2022/11/21 09:39:38;;;;;;;43.72;21.20;;;1.10;99.90;;;;;;6130496;23;20020;-80
2022/11/21 09:42:27;;;;;;;42.95;23.15;;;1.10;99.90;;;;;;6156569;23;20020;-81
2022/11/21 09:44:59;;;;;;;42.72;21.33;;;1.10;99.90;;;;;;6156160;23;20092;-80
2022/11/21 09:47:42;;;;;;;46.37;22.77;;;1.20;99.90;;;;;;6156383;23;20021;-81
2022/11/21 09:50:13;;;;;;;38.15;20.65;;;1.20;99.90;;;;;;6156903;23;20017;-80
2022/11/21 09:53:18;;;;;;;46.63;24.45;;;1.20;99.90;;;;;;6156444;23;20017;-80
2022/11/21 09:55:49;;;;;;;47.28;25.20;;;1.20;99.90;;;;;;6114881;23;20017;-80
2022/11/21 09:58:28;;;;;;;48.22;23.98;;;1.10;99.90;;;;;;6156334;23;20561;-80
2022/11/21 10:00:54;;;;;;;40.28;22.27;;;1.10;99.90;;;;;;6156736;23;20064;-80
2022/11/21 10:03:24;;;;;;;42.42;22.08;;;1.20;99.90;;;;;;6156511;23;20088;-80
2022/11/21 10:06:21;;;;;;;47.38;24.05;;;1.20;99.90;;;;;;6156750;23;20014;-81
2022/11/21 10:09:14;;;;;;;46.67;23.17;;;1.20;99.90;;;;;;6130003;23;20028;-80
2022/11/21 10:15:05;;;;;;;38.87;21.17;;;1.20;99.90;;;;;;6129944;23;20021;-80
2022/11/21 10:17:40;;;;;;;40.72;22.20;;;1.20;99.90;;;;;;6110701;23;20038;-81
2022/11/21 10:20:25;;;;;;;43.97;21.60;;;1.20;99.90;;;;;;6156525;23;20021;-81
2022/11/21 10:22:59;;;;;;;42.53;21.30;;;1.20;99.90;;;;;;6156362;23;20017;-81
2022/11/21 10:25:30;;;;;;;36.92;18.50;;;1.30;99.90;;;;;;6156552;23;20088;-81
2022/11/21 10:28:26;;;;;;;36.58;18.98;;;1.40;99.90;;;;;;6129946;23;20049;-81
2022/11/21 10:30:53;;;;;;;41.60;21.90;;;1.50;99.90;;;;;;6148746;23;20517;-80
2022/11/21 10:33:40;;;;;;;40.10;19.90;;;1.60;99.90;;;;;;6156186;23;20024;-80
2022/11/21 10:36:38;;;;;;;37.72;20.08;;;1.80;99.90;;;;;;6155127;23;20667;-81
2022/11/21 10:39:27;;;;;;;46.17;22.65;;;2.00;99.90;;;;;;6130204;23;20025;-82
2022/11/21 10:42:15;;;;;;;37.35;19.63;;;2.20;99.90;;;;;;6155888;23;20021;-80
2022/11/21 10:47:31;;;;;;;33.85;17.73;;;2.40;99.90;;;;;;6129775;23;20017;-80
2022/11/21 10:50:19;;;;;;;26.30;15.83;;;2.50;99.90;;;;;;6156160;23;20029;-82
2022/11/21 10:52:58;;;;;;;26.50;14.65;;;2.60;99.90;;;;;;6127602;23;20260;-81
2022/11/21 10:55:24;;;;;;;26.25;15.95;;;2.60;99.90;;;;;;6154751;23;20017;-80
2022/11/21 10:57:51;;;;;;;27.00;15.07;;;2.40;99.90;;;;;;6156038;23;20014;-81
2022/11/21 11:00:25;;;;;;;28.75;15.10;;;2.50;99.90;;;;;;6129392;23;20010;-80
2022/11/21 11:03:06;;;;;;;28.42;15.77;;;2.50;99.90;;;;;;6129378;23;20092;-79
2022/11/21 11:05:36;;;;;;;29.10;16.42;;;2.40;99.90;;;;;;6129846;23;20018;-81
2022/11/21 11:08:13;;;;;;;28.50;15.27;;;2.50;99.90;;;;;;6155700;23;20338;-79
2022/11/21 11:11:09;;;;;;;25.02;14.95;;;2.50;99.90;;;;;;6155594;23;20028;-81
2022/11/21 11:13:55;;;;;;;31.38;18.45;;;2.50;99.90;;;;;;6148122;23;20021;-88
2022/11/21 11:16:22;;;;;;;28.10;16.05;;;2.50;99.90;;;;;;6155665;23;20021;-79
2022/11/21 11:18:58;;;;;;;28.88;16.80;;;2.60;99.90;;;;;;6156029;23;20018;-80
2022/11/21 11:21:40;;;;;;;27.83;15.13;;;2.50;99.90;;;;;;6155600;23;20040;-81
2022/11/21 11:24:08;;;;;;;23.88;14.48;;;2.60;99.90;;;;;;6155415;23;20033;-81
2022/11/21 11:26:48;;;;;;;28.83;15.65;;;2.50;99.90;;;;;;6155903;23;20057;-81
2022/11/21 11:29:19;;;;;;;29.38;16.92;;;2.60;99.90;;;;;;6129637;23;20017;-81
2022/11/21 11:32:03;;;;;;;26.55;14.95;;;2.70;99.90;;;;;;6129728;23;20021;-83
2022/11/21 11:34:36;;;;;;;31.35;15.93;;;2.70;99.90;;;;;;6155463;23;20033;-91
2022/11/21 11:37:29;;;;;;;29.25;16.40;;;2.70;99.90;;;;;;6129537;23;20025;-83
2022/11/21 11:40:22;;;;;;;21.48;13.75;;;2.80;99.90;;;;;;6155500;23;20323;-80
2022/11/21 11:48:38;;;;;;;23.92;14.15;;;2.90;99.90;;;;;;6156409;23;20096;-81
2022/11/21 11:51:25;;;;;;;22.83;14.48;;;2.80;99.90;;;;;;6157437;23;20084;-82
2022/11/21 11:53:58;;;;;;;22.13;12.95;;;2.90;99.90;;;;;;6157766;23;20017;-81
2022/11/21 11:56:31;;;;;;;23.35;13.00;;;2.90;99.90;;;;;;6157325;23;20017;-83
2022/11/21 11:59:20;;;;;;;21.00;13.10;;;3.00;99.90;;;;;;6131256;23;20458;-80
2022/11/21 12:02:27;;;;;;;21.27;13.15;;;3.00;99.90;;;;;;6157135;23;20029;-81
2022/11/21 12:05:09;;;;;;;23.52;14.93;;;3.10;99.90;;;;;;6145502;23;20025;-81
2022/11/21 12:07:43;;;;;;;21.55;12.82;;;3.10;99.90;;;;;;6131831;23;20353;-88
2022/11/21 12:10:25;;;;;;;19.33;12.52;;;3.10;99.90;;;;;;6157652;23;20021;-83
2022/11/21 12:13:17;;;;;;;22.23;13.10;;;3.10;99.90;;;;;;6155762;23;20017;-88
2022/11/21 12:15:49;;;;;;;22.00;12.60;;;3.20;99.90;;;;;;6129426;23;20476;-83
2022/11/21 12:18:30;;;;;;;21.80;12.70;;;3.30;99.90;;;;;;6158519;23;20032;-84
2022/11/21 12:21:02;;;;;;;21.08;12.18;;;3.30;99.90;;;;;;6157539;23;20013;-85
2022/11/21 12:23:31;;;;;;;20.73;12.48;;;3.30;99.90;;;;;;6156028;23;20022;-82
2022/11/21 12:26:08;;;;;;;27.85;14.63;;;3.30;99.90;;;;;;6156551;23;20029;-83
2022/11/21 12:28:43;;;;;;;27.60;14.70;;;3.30;99.90;;;;;;6131085;23;20010;-82
2022/11/21 12:31:16;;;;;;;37.88;19.70;;;3.30;99.90;;;;;;6157160;23;20096;-82
2022/11/21 12:34:16;;;;;;;24.10;13.52;;;3.30;99.90;;;;;;6157153;23;20032;-80
2022/11/21 12:36:46;;;;;;;26.05;16.33;;;3.30;99.90;;;;;;6100214;23;20096;-81
2022/11/21 12:39:35;;;;;;;30.77;16.50;;;3.40;99.90;;;;;;6157287;23;20025;-81
2022/11/21 12:45:49;;;;;;;26.88;15.50;;;3.40;99.90;;;;;;6157012;23;20457;-81
2022/11/21 12:54:59;;;;;;;23.13;14.25;;;3.40;99.90;;;;;;6131098;23;20466;-87
2022/11/21 12:58:01;;;;;;;23.60;13.15;;;3.40;99.90;;;;;;6156707;23;20021;-84
2022/11/21 13:00:47;;;;;;;18.20;11.65;;;3.40;99.90;;;;;;6156696;23;20059;-85
2022/11/21 13:03:49;;;;;;;24.10;12.02;;;3.40;99.90;;;;;;6131279;23;20449;-81
2022/11/21 13:06:25;;;;;;;20.00;10.88;;;3.40;99.90;;;;;;6109680;23;20505;-81
2022/11/21 13:08:53;;;;;;;23.17;14.05;;;3.40;99.90;;;;;;6156379;23;20026;-81
2022/11/21 13:14:27;;;;;;;22.10;12.45;;;3.40;99.90;;;;;;6130515;23;20021;-84
2022/11/21 13:17:17;;;;;;;22.30;13.68;;;3.40;99.90;;;;;;6156766;23;20373;-84
2022/11/21 13:20:12;;;;;;;23.00;13.15;;;3.30;99.90;;;;;;6126665;23;20025;-94
2022/11/21 13:22:38;;;;;;;22.83;13.02;;;3.40;99.90;;;;;;6130638;23;20021;-86